sensor_id;sensor_type;location;lat;lon;timestamp;pressure;altitude;pressure_sealevel;temperature;humidity
21276;BME280;36472;52.170;20.884;2022-07-06T00:00:23;100636.13;;;17.57;100.00
21276;BME280;36472;52.170;20.884;2022-07-06T00:03:03;100642.31;;;17.58;100.00
21276;BME280;36472;52.170;20.884;2022-07-06T00:05:32;100647.91;;;17.55;100.00
21276;BME280;36472;52.170;20.884;2022-07-06T00:08:03;100640.06;;;17.53;100.00
21276;BME280;36472;52.170;20.884;2022-07-06T00:10:32;100645.38;;;17.53;100.00
21276;BME280;36472;52.170;20.884;2022-07-06T00:13:01;100644.53;;;17.63;100.00
21276;BME280;36472;52.170;20.884;2022-07-06T00:15:29;100634.88;;;17.52;100.00
21276;BME280;36472;52.170;20.884;2022-07-06T00:17:58;100643.69;;;17.43;100.00
21276;BME280;36472;52.170;20.884;2022-07-06T00:20:27;100641.88;;;17.43;100.00
21276;BME280;36472;52.170;20.884;2022-07-06T00:22:55;100641.56;;;17.27;100.00
21276;BME280;36472;52.170;20.884;2022-07-06T00:25:25;100640.06;;;17.34;100.00
21276;BME280;36472;52.170;20.884;2022-07-06T00:27:54;100628.28;;;17.17;100.00
21276;BME280;36472;52.170;20.884;2022-07-06T00:30:23;100624.78;;;17.16;100.00
21276;BME280;36472;52.170;20.884;2022-07-06T00:32:52;100625.03;;;17.04;100.00
21276;BME280;36472;52.170;20.884;2022-07-06T00:35:21;100625.88;;;17.04;100.00
21276;BME280;36472;52.170;20.884;2022-07-06T00:37:50;100616.66;;;16.98;100.00
21276;BME280;36472;52.170;20.884;2022-07-06T00:40:20;100619.19;;;17.10;100.00
21276;BME280;36472;52.170;20.884;2022-07-06T00:42:50;100615.81;;;16.98;100.00
21276;BME280;36472;52.170;20.884;2022-07-06T00:45:19;100614.66;;;16.91;100.00
21276;BME280;36472;52.170;20.884;2022-07-06T00:47:48;100612.56;;;16.94;100.00
21276;BME280;36472;52.170;20.884;2022-07-06T00:50:19;100608.81;;;16.97;100.00
21276;BME280;36472;52.170;20.884;2022-07-06T00:52:51;100610.63;;;17.06;100.00
21276;BME280;36472;52.170;20.884;2022-07-06T00:55:23;100606.28;;;16.95;100.00
21276;BME280;36472;52.170;20.884;2022-07-06T00:57:55;100603.81;;;17.04;100.00
21276;BME280;36472;52.170;20.884;2022-07-06T01:00:26;100597.06;;;16.99;100.00
21276;BME280;36472;52.170;20.884;2022-07-06T01:02:55;100592.47;;;16.92;100.00
21276;BME280;36472;52.170;20.884;2022-07-06T01:05:24;100595.06;;;16.82;100.00
21276;BME280;36472;52.170;20.884;2022-07-06T01:07:54;100589.03;;;16.80;100.00
21276;BME280;36472;52.170;20.884;2022-07-06T01:10:24;100583.44;;;16.73;100.00
21276;BME280;36472;52.170;20.884;2022-07-06T01:12:54;100591.50;;;16.93;100.00
21276;BME280;36472;52.170;20.884;2022-07-06T01:15:26;100594.84;;;16.95;100.00
21276;BME280;36472;52.170;20.884;2022-07-06T01:17:54;100587.72;;;16.95;100.00
21276;BME280;36472;52.170;20.884;2022-07-06T01:20:30;100591.50;;;16.93;100.00
21276;BME280;36472;52.170;20.884;2022-07-06T01:22:59;100594.59;;;16.98;100.00
21276;BME280;36472;52.170;20.884;2022-07-06T01:25:28;100587.03;;;16.93;100.00
21276;BME280;36472;52.170;20.884;2022-07-06T01:27:57;100587.41;;;16.89;100.00
21276;BME280;36472;52.170;20.884;2022-07-06T01:30:26;100581.56;;;16.95;100.00
21276;BME280;36472;52.170;20.884;2022-07-06T01:32:55;100578.50;;;16.99;100.00
21276;BME280;36472;52.170;20.884;2022-07-06T01:35:26;100578.09;;;17.04;100.00
21276;BME280;36472;52.170;20.884;2022-07-06T01:37:58;100581.44;;;17.06;100.00
21276;BME280;36472;52.170;20.884;2022-07-06T01:40:27;100587.28;;;16.90;100.00
21276;BME280;36472;52.170;20.884;2022-07-06T01:42:57;100590.53;;;17.04;100.00
21276;BME280;36472;52.170;20.884;2022-07-06T01:45:25;100589.53;;;16.95;100.00
21276;BME280;36472;52.170;20.884;2022-07-06T01:47:54;100590.63;;;16.92;100.00
21276;BME280;36472;52.170;20.884;2022-07-06T01:50:23;100588.91;;;16.81;100.00
21276;BME280;36472;52.170;20.884;2022-07-06T01:52:52;100594.84;;;16.95;100.00
21276;BME280;36472;52.170;20.884;2022-07-06T01:55:23;100588.47;;;16.76;100.00
21276;BME280;36472;52.170;20.884;2022-07-06T01:57:52;100582.56;;;16.63;100.00
21276;BME280;36472;52.170;20.884;2022-07-06T02:00:21;100582.88;;;16.70;100.00
21276;BME280;36472;52.170;20.884;2022-07-06T02:02:51;100582.56;;;16.63;100.00
21276;BME280;36472;52.170;20.884;2022-07-06T02:05:19;100571.91;;;16.53;100.00
21276;BME280;36472;52.170;20.884;2022-07-06T02:07:49;100567.78;;;16.60;100.00
21276;BME280;36472;52.170;20.884;2022-07-06T02:10:18;100570.31;;;16.62;100.00
21276;BME280;36472;52.170;20.884;2022-07-06T02:12:49;100570.44;;;16.60;100.00
21276;BME280;36472;52.170;20.884;2022-07-06T02:15:18;100562.88;;;16.56;100.00
21276;BME280;36472;52.170;20.884;2022-07-06T02:17:47;100567.75;;;16.51;100.00
21276;BME280;36472;52.170;20.884;2022-07-06T02:20:15;100567.88;;;16.49;100.00
21276;BME280;36472;52.170;20.884;2022-07-06T02:22:44;100556.88;;;16.54;100.00
21276;BME280;36472;52.170;20.884;2022-07-06T02:25:13;100568.88;;;16.58;100.00
21276;BME280;36472;52.170;20.884;2022-07-06T02:27:43;100572.22;;;16.60;100.00
21276;BME280;36472;52.170;20.884;2022-07-06T02:30:13;100574.19;;;16.58;100.00
21276;BME280;36472;52.170;20.884;2022-07-06T02:32:43;100572.09;;;16.61;100.00
21276;BME280;36472;52.170;20.884;2022-07-06T02:35:12;100575.19;;;16.67;100.00
21276;BME280;36472;52.170;20.884;2022-07-06T02:37:41;100576.44;;;16.62;100.00
21276;BME280;36472;52.170;20.884;2022-07-06T02:40:11;100580.34;;;16.68;100.00
21276;BME280;36472;52.170;20.884;2022-07-06T02:42:40;100583.75;;;16.80;100.00
21276;BME280;36472;52.170;20.884;2022-07-06T02:45:10;100583.81;;;16.90;100.00
21276;BME280;36472;52.170;20.884;2022-07-06T02:47:42;100589.63;;;16.83;100.00
21276;BME280;36472;52.170;20.884;2022-07-06T02:50:10;100586.03;;;16.85;100.00
21276;BME280;36472;52.170;20.884;2022-07-06T02:52:40;100582.63;;;16.73;100.00
21276;BME280;36472;52.170;20.884;2022-07-06T02:55:10;100579.09;;;16.62;100.00
21276;BME280;36472;52.170;20.884;2022-07-06T02:57:41;100575.88;;;16.59;100.00
21276;BME280;36472;52.170;20.884;2022-07-06T03:00:12;100571.69;;;16.66;100.00
21276;BME280;36472;52.170;20.884;2022-07-06T03:02:43;100570.56;;;16.69;100.00
21276;BME280;36472;52.170;20.884;2022-07-06T03:05:12;100579.25;;;16.80;100.00
21276;BME280;36472;52.170;20.884;2022-07-06T03:07:41;100577.59;;;16.79;100.00
21276;BME280;36472;52.170;20.884;2022-07-06T03:10:10;100580.00;;;16.82;100.00
21276;BME280;36472;52.170;20.884;2022-07-06T03:12:39;100578.50;;;16.90;100.00
21276;BME280;36472;52.170;20.884;2022-07-06T03:15:09;100575.50;;;16.83;100.00
21276;BME280;36472;52.170;20.884;2022-07-06T03:17:41;100567.44;;;16.85;100.00
21276;BME280;36472;52.170;20.884;2022-07-06T03:20:11;100564.78;;;16.85;100.00
21276;BME280;36472;52.170;20.884;2022-07-06T03:22:42;100567.00;;;16.89;100.00
21276;BME280;36472;52.170;20.884;2022-07-06T03:25:13;100560.75;;;16.90;100.00
21276;BME280;36472;52.170;20.884;2022-07-06T03:27:42;100561.56;;;16.91;100.00
21276;BME280;36472;52.170;20.884;2022-07-06T03:30:12;100554.28;;;16.83;100.00
21276;BME280;36472;52.170;20.884;2022-07-06T03:32:49;100553.66;;;16.50;100.00
21276;BME280;36472;52.170;20.884;2022-07-06T03:35:19;100554.13;;;16.34;100.00
21276;BME280;36472;52.170;20.884;2022-07-06T03:37:51;100547.50;;;16.19;100.00
21276;BME280;36472;52.170;20.884;2022-07-06T03:40:22;100543.31;;;16.16;100.00
21276;BME280;36472;52.170;20.884;2022-07-06T03:42:52;100547.41;;;16.30;100.00
21276;BME280;36472;52.170;20.884;2022-07-06T03:45:21;100538.66;;;16.39;100.00
21276;BME280;36472;52.170;20.884;2022-07-06T03:47:52;100543.44;;;16.45;100.00
21276;BME280;36472;52.170;20.884;2022-07-06T03:50:21;100548.13;;;16.32;100.00
21276;BME280;36472;52.170;20.884;2022-07-06T03:52:50;100551.03;;;16.19;100.00
21276;BME280;36472;52.170;20.884;2022-07-06T03:55:19;100545.66;;;16.40;100.00
21276;BME280;36472;52.170;20.884;2022-07-06T03:57:53;100549.78;;;16.64;100.00
21276;BME280;36472;52.170;20.884;2022-07-06T04:00:24;100552.72;;;16.80;100.00
21276;BME280;36472;52.170;20.884;2022-07-06T04:03:01;100555.56;;;16.89;100.00
21276;BME280;36472;52.170;20.884;2022-07-06T04:05:36;100561.72;;;16.89;100.00
21276;BME280;36472;52.170;20.884;2022-07-06T04:08:04;100552.91;;;16.89;100.00
21276;BME280;36472;52.170;20.884;2022-07-06T04:10:39;100545.66;;;16.91;100.00
21276;BME280;36472;52.170;20.884;2022-07-06T04:13:08;100533.94;;;16.93;100.00
21276;BME280;36472;52.170;20.884;2022-07-06T04:15:37;100536.44;;;16.95;100.00
21276;BME280;36472;52.170;20.884;2022-07-06T04:18:08;100528.34;;;16.96;100.00
21276;BME280;36472;52.170;20.884;2022-07-06T04:20:44;100541.34;;;17.09;100.00
21276;BME280;36472;52.170;20.884;2022-07-06T04:23:13;100532.25;;;17.02;100.00
21276;BME280;36472;52.170;20.884;2022-07-06T04:25:42;100533.09;;;17.12;100.00
21276;BME280;36472;52.170;20.884;2022-07-06T04:28:12;100542.19;;;17.19;100.00
21276;BME280;36472;52.170;20.884;2022-07-06T04:30:41;100536.19;;;17.17;100.00
21276;BME280;36472;52.170;20.884;2022-07-06T04:33:16;100534.91;;;17.31;100.00
21276;BME280;36472;52.170;20.884;2022-07-06T04:35:46;100537.56;;;17.41;100.00
21276;BME280;36472;52.170;20.884;2022-07-06T04:38:16;100539.09;;;17.53;100.00
21276;BME280;36472;52.170;20.884;2022-07-06T04:40:47;100538.81;;;17.56;100.00
21276;BME280;36472;52.170;20.884;2022-07-06T04:43:18;100545.78;;;17.57;100.00
21276;BME280;36472;52.170;20.884;2022-07-06T04:45:47;100546.50;;;17.40;100.00
21276;BME280;36472;52.170;20.884;2022-07-06T04:48:17;100545.97;;;17.46;100.00
21276;BME280;36472;52.170;20.884;2022-07-06T04:50:46;100536.72;;;17.50;100.00
21276;BME280;36472;52.170;20.884;2022-07-06T04:53:20;100534.31;;;17.47;100.00
21276;BME280;36472;52.170;20.884;2022-07-06T04:55:50;100531.97;;;17.44;100.00
21276;BME280;36472;52.170;20.884;2022-07-06T04:58:19;100532.94;;;17.53;100.00
21276;BME280;36472;52.170;20.884;2022-07-06T05:00:49;100538.69;;;17.48;100.00
21276;BME280;36472;52.170;20.884;2022-07-06T05:03:19;100536.03;;;17.48;100.00
21276;BME280;36472;52.170;20.884;2022-07-06T05:05:48;100539.63;;;17.47;100.00
21276;BME280;36472;52.170;20.884;2022-07-06T05:08:21;100544.25;;;17.65;100.00
21276;BME280;36472;52.170;20.884;2022-07-06T05:10:50;100548.00;;;17.91;100.00
21276;BME280;36472;52.170;20.884;2022-07-06T05:13:21;100547.13;;;18.01;100.00
21276;BME280;36472;52.170;20.884;2022-07-06T05:15:50;100553.72;;;17.97;100.00
21276;BME280;36472;52.170;20.884;2022-07-06T05:18:21;100555.56;;;17.86;100.00
21276;BME280;36472;52.170;20.884;2022-07-06T05:20:50;100551.78;;;17.89;100.00
21276;BME280;36472;52.170;20.884;2022-07-06T05:23:19;100550.09;;;17.88;100.00
21276;BME280;36472;52.170;20.884;2022-07-06T05:25:48;100549.97;;;17.89;100.00
21276;BME280;36472;52.170;20.884;2022-07-06T05:28:17;100553.63;;;17.88;100.00
21276;BME280;36472;52.170;20.884;2022-07-06T05:30:46;100543.50;;;17.82;100.00
21276;BME280;36472;52.170;20.884;2022-07-06T05:33:16;100553.44;;;18.00;100.00
21276;BME280;36472;52.170;20.884;2022-07-06T05:35:47;100552.66;;;18.17;100.00
21276;BME280;36472;52.170;20.884;2022-07-06T05:38:20;100554.00;;;18.31;100.00
21276;BME280;36472;52.170;20.884;2022-07-06T05:40:50;100552.19;;;18.31;100.00
21276;BME280;36472;52.170;20.884;2022-07-06T05:43:19;100555.25;;;18.64;100.00
21276;BME280;36472;52.170;20.884;2022-07-06T05:45:49;100560.03;;;18.61;100.00
21276;BME280;36472;52.170;20.884;2022-07-06T05:48:21;100571.72;;;18.78;100.00
21276;BME280;36472;52.170;20.884;2022-07-06T05:51:09;100565.06;;;18.92;100.00
21276;BME280;36472;52.170;20.884;2022-07-06T05:53:40;100579.50;;;18.89;100.00
21276;BME280;36472;52.170;20.884;2022-07-06T05:56:09;100579.31;;;18.73;100.00
21276;BME280;36472;52.170;20.884;2022-07-06T05:58:39;100585.69;;;18.62;100.00
21276;BME280;36472;52.170;20.884;2022-07-06T06:01:08;100577.53;;;18.63;100.00
21276;BME280;36472;52.170;20.884;2022-07-06T06:03:40;100581.44;;;18.69;100.00
21276;BME280;36472;52.170;20.884;2022-07-06T06:06:10;100575.75;;;18.82;100.00
21276;BME280;36472;52.170;20.884;2022-07-06T06:08:39;100577.31;;;18.84;99.23
21276;BME280;36472;52.170;20.884;2022-07-06T06:11:08;100583.56;;;18.65;98.06
21276;BME280;36472;52.170;20.884;2022-07-06T06:13:40;100580.97;;;18.46;100.00
21276;BME280;36472;52.170;20.884;2022-07-06T06:16:09;100586.41;;;18.54;100.00
21276;BME280;36472;52.170;20.884;2022-07-06T06:18:38;100583.19;;;18.50;100.00
21276;BME280;36472;52.170;20.884;2022-07-06T06:21:10;100576.34;;;18.48;100.00
21276;BME280;36472;52.170;20.884;2022-07-06T06:23:39;100586.00;;;18.77;100.00
21276;BME280;36472;52.170;20.884;2022-07-06T06:26:08;100579.97;;;18.84;100.00
21276;BME280;36472;52.170;20.884;2022-07-06T06:28:36;100580.84;;;19.03;99.21
21276;BME280;36472;52.170;20.884;2022-07-06T06:31:06;100579.25;;;19.10;96.59
21276;BME280;36472;52.170;20.884;2022-07-06T06:33:34;100583.25;;;19.14;98.21
21276;BME280;36472;52.170;20.884;2022-07-06T06:36:04;100575.88;;;19.26;97.22
21276;BME280;36472;52.170;20.884;2022-07-06T06:38:34;100579.75;;;19.50;98.42
21276;BME280;36472;52.170;20.884;2022-07-06T06:41:03;100581.50;;;19.59;88.93
21276;BME280;36472;52.170;20.884;2022-07-06T06:43:32;100579.44;;;19.89;89.19
21276;BME280;36472;52.170;20.884;2022-07-06T06:46:07;100581.81;;;20.00;84.58
21276;BME280;36472;52.170;20.884;2022-07-06T06:48:36;100587.22;;;20.08;86.66
21276;BME280;36472;52.170;20.884;2022-07-06T06:51:04;100593.84;;;20.65;84.05
21276;BME280;36472;52.170;20.884;2022-07-06T06:53:34;100573.47;;;21.31;83.38
21276;BME280;36472;52.170;20.884;2022-07-06T06:56:07;100583.03;;;21.50;78.02
21276;BME280;36472;52.170;20.884;2022-07-06T06:58:36;100581.28;;;21.00;79.81
21276;BME280;36472;52.170;20.884;2022-07-06T07:01:24;100587.41;;;20.41;83.35
21276;BME280;36472;52.170;20.884;2022-07-06T07:03:54;100593.38;;;20.35;83.93
21276;BME280;36472;52.170;20.884;2022-07-06T07:06:23;100590.69;;;20.35;86.84
21276;BME280;36472;52.170;20.884;2022-07-06T07:08:53;100590.88;;;20.07;85.29
21276;BME280;36472;52.170;20.884;2022-07-06T07:11:23;100594.09;;;19.93;87.14
21276;BME280;36472;52.170;20.884;2022-07-06T07:13:52;100589.25;;;19.70;86.21
21276;BME280;36472;52.170;20.884;2022-07-06T07:16:21;100595.84;;;20.02;87.59
21276;BME280;36472;52.170;20.884;2022-07-06T07:18:52;100593.47;;;20.25;84.31
21276;BME280;36472;52.170;20.884;2022-07-06T07:21:21;100594.44;;;20.16;83.57
21276;BME280;36472;52.170;20.884;2022-07-06T07:23:49;100596.41;;;20.40;85.09
21276;BME280;36472;52.170;20.884;2022-07-06T07:26:20;100597.56;;;20.46;81.01
21276;BME280;36472;52.170;20.884;2022-07-06T07:28:48;100593.53;;;20.68;78.75
21276;BME280;36472;52.170;20.884;2022-07-06T07:31:17;100593.34;;;21.20;78.38
21276;BME280;36472;52.170;20.884;2022-07-06T07:33:46;100594.69;;;21.41;73.54
21276;BME280;36472;52.170;20.884;2022-07-06T07:36:21;100598.41;;;21.73;73.21
21276;BME280;36472;52.170;20.884;2022-07-06T07:38:50;100603.88;;;21.30;73.79
21276;BME280;36472;52.170;20.884;2022-07-06T07:41:20;100601.97;;;21.06;78.42
21276;BME280;36472;52.170;20.884;2022-07-06T07:43:49;100605.28;;;20.91;77.59
21276;BME280;36472;52.170;20.884;2022-07-06T07:46:18;100610.63;;;20.83;75.42
21276;BME280;36472;52.170;20.884;2022-07-06T07:48:47;100606.03;;;21.35;77.81
21276;BME280;36472;52.170;20.884;2022-07-06T07:51:16;100610.44;;;21.69;71.63
21276;BME280;36472;52.170;20.884;2022-07-06T07:53:46;100615.59;;;21.95;67.08
21276;BME280;36472;52.170;20.884;2022-07-06T07:56:14;100617.72;;;22.32;68.83
21276;BME280;36472;52.170;20.884;2022-07-06T07:58:44;100624.25;;;23.17;62.59
21276;BME280;36472;52.170;20.884;2022-07-06T08:01:19;100613.09;;;24.13;58.46
21276;BME280;36472;52.170;20.884;2022-07-06T08:03:47;100606.03;;;24.86;55.02
21276;BME280;36472;52.170;20.884;2022-07-06T08:06:16;100616.50;;;24.81;54.00
21276;BME280;36472;52.170;20.884;2022-07-06T08:08:45;100618.47;;;24.57;55.62
21276;BME280;36472;52.170;20.884;2022-07-06T08:11:14;100626.88;;;23.71;54.37
21276;BME280;36472;52.170;20.884;2022-07-06T08:13:47;100631.22;;;23.26;56.75
21276;BME280;36472;52.170;20.884;2022-07-06T08:16:16;100625.25;;;23.16;58.10
21276;BME280;36472;52.170;20.884;2022-07-06T08:18:45;100623.75;;;23.13;57.31
21276;BME280;36472;52.170;20.884;2022-07-06T08:21:14;100625.91;;;22.78;61.32
21276;BME280;36472;52.170;20.884;2022-07-06T08:23:54;100625.66;;;22.65;61.48
21276;BME280;36472;52.170;20.884;2022-07-06T08:26:23;100622.16;;;22.96;58.12
21276;BME280;36472;52.170;20.884;2022-07-06T08:28:54;100616.66;;;22.89;58.40
21276;BME280;36472;52.170;20.884;2022-07-06T08:31:24;100615.25;;;22.70;58.62
21276;BME280;36472;52.170;20.884;2022-07-06T08:34:12;100607.38;;;23.55;56.61
21276;BME280;36472;52.170;20.884;2022-07-06T08:36:41;100611.88;;;23.77;55.26
21276;BME280;36472;52.170;20.884;2022-07-06T08:39:10;100616.63;;;24.58;53.21
21276;BME280;36472;52.170;20.884;2022-07-06T08:41:42;100620.84;;;26.40;47.42
21276;BME280;36472;52.170;20.884;2022-07-06T08:44:15;100612.16;;;25.81;48.19
21276;BME280;36472;52.170;20.884;2022-07-06T08:46:45;100615.53;;;24.89;49.80
21276;BME280;36472;52.170;20.884;2022-07-06T08:49:16;100617.88;;;24.92;48.45
21276;BME280;36472;52.170;20.884;2022-07-06T08:51:46;100619.19;;;24.81;48.03
21276;BME280;36472;52.170;20.884;2022-07-06T08:54:17;100615.16;;;24.55;51.33
21276;BME280;36472;52.170;20.884;2022-07-06T08:56:47;100619.50;;;24.41;49.16
21276;BME280;36472;52.170;20.884;2022-07-06T08:59:18;100614.53;;;25.26;46.18
21276;BME280;36472;52.170;20.884;2022-07-06T09:01:47;100615.84;;;26.72;45.82
21276;BME280;36472;52.170;20.884;2022-07-06T09:04:18;100625.00;;;28.12;38.82
21276;BME280;36472;52.170;20.884;2022-07-06T09:06:50;100620.66;;;29.79;37.43
21276;BME280;36472;52.170;20.884;2022-07-06T09:09:21;100625.59;;;28.14;38.31
21276;BME280;36472;52.170;20.884;2022-07-06T09:11:51;100632.25;;;27.72;41.45
21276;BME280;36472;52.170;20.884;2022-07-06T09:14:21;100624.16;;;27.58;39.14
21276;BME280;36472;52.170;20.884;2022-07-06T09:17:01;100625.97;;;26.28;41.77
21276;BME280;36472;52.170;20.884;2022-07-06T09:19:32;100626.47;;;25.02;44.16
21276;BME280;36472;52.170;20.884;2022-07-06T09:22:02;100623.47;;;24.75;44.52
21276;BME280;36472;52.170;20.884;2022-07-06T09:24:32;100616.22;;;25.12;44.87
21276;BME280;36472;52.170;20.884;2022-07-06T09:27:00;100609.91;;;26.13;43.49
21276;BME280;36472;52.170;20.884;2022-07-06T09:29:33;100611.31;;;26.44;41.42
21276;BME280;36472;52.170;20.884;2022-07-06T09:32:04;100604.50;;;26.13;39.88
21276;BME280;36472;52.170;20.884;2022-07-06T09:34:44;100608.56;;;25.96;39.65
21276;BME280;36472;52.170;20.884;2022-07-06T09:37:14;100609.00;;;27.57;37.17
21276;BME280;36472;52.170;20.884;2022-07-06T09:39:43;100607.75;;;28.79;34.69
21276;BME280;36472;52.170;20.884;2022-07-06T09:42:13;100600.94;;;30.34;32.41
21276;BME280;36472;52.170;20.884;2022-07-06T09:44:43;100611.25;;;31.53;29.92
21276;BME280;36472;52.170;20.884;2022-07-06T09:47:12;100612.34;;;29.49;32.74
21276;BME280;36472;52.170;20.884;2022-07-06T09:49:41;100605.16;;;28.39;33.33
21276;BME280;36472;52.170;20.884;2022-07-06T09:52:11;100608.25;;;29.39;33.89
21276;BME280;36472;52.170;20.884;2022-07-06T09:54:41;100602.38;;;29.42;32.11
21276;BME280;36472;52.170;20.884;2022-07-06T09:57:09;100616.84;;;28.91;33.33
21276;BME280;36472;52.170;20.884;2022-07-06T09:59:40;100603.53;;;29.53;32.57
21276;BME280;36472;52.170;20.884;2022-07-06T10:02:10;100599.47;;;30.38;31.25
21276;BME280;36472;52.170;20.884;2022-07-06T10:04:43;100602.94;;;31.36;29.42
21276;BME280;36472;52.170;20.884;2022-07-06T10:07:14;100600.97;;;31.01;30.21
21276;BME280;36472;52.170;20.884;2022-07-06T10:09:44;100610.47;;;29.10;33.31
21276;BME280;36472;52.170;20.884;2022-07-06T10:12:17;100607.13;;;27.58;33.28
21276;BME280;36472;52.170;20.884;2022-07-06T10:14:48;100614.88;;;26.44;35.11
21276;BME280;36472;52.170;20.884;2022-07-06T10:17:22;100589.47;;;27.82;34.32
21276;BME280;36472;52.170;20.884;2022-07-06T10:19:54;100604.88;;;28.73;32.05
21276;BME280;36472;52.170;20.884;2022-07-06T10:22:24;100610.16;;;29.64;30.62
21276;BME280;36472;52.170;20.884;2022-07-06T10:24:53;100609.06;;;30.15;31.84
21276;BME280;36472;52.170;20.884;2022-07-06T10:27:24;100619.22;;;30.94;30.08
21276;BME280;36472;52.170;20.884;2022-07-06T10:29:53;100613.59;;;30.40;28.39
21276;BME280;36472;52.170;20.884;2022-07-06T10:32:25;100618.50;;;29.62;29.35
21276;BME280;36472;52.170;20.884;2022-07-06T10:34:54;100608.22;;;29.07;31.33
21276;BME280;36472;52.170;20.884;2022-07-06T10:37:25;100609.06;;;28.63;30.52
21276;BME280;36472;52.170;20.884;2022-07-06T10:39:55;100615.31;;;27.03;33.85
21276;BME280;36472;52.170;20.884;2022-07-06T10:42:47;100620.75;;;26.26;36.77
21276;BME280;36472;52.170;20.884;2022-07-06T10:45:50;100616.34;;;25.90;34.83
21276;BME280;36472;52.170;20.884;2022-07-06T10:48:21;100615.81;;;26.30;35.58
21276;BME280;36472;52.170;20.884;2022-07-06T10:50:53;100620.25;;;26.09;35.97
21276;BME280;36472;52.170;20.884;2022-07-06T10:53:24;100616.69;;;25.81;34.81
21276;BME280;36472;52.170;20.884;2022-07-06T10:55:56;100611.97;;;25.61;36.38
21276;BME280;36472;52.170;20.884;2022-07-06T10:58:48;100613.00;;;26.45;35.14
21276;BME280;36472;52.170;20.884;2022-07-06T11:01:21;100619.75;;;26.62;35.14
21276;BME280;36472;52.170;20.884;2022-07-06T11:04:06;100611.31;;;26.44;34.22
21276;BME280;36472;52.170;20.884;2022-07-06T11:06:38;100616.16;;;26.13;35.53
21276;BME280;36472;52.170;20.884;2022-07-06T11:09:09;100609.13;;;26.19;35.95
21276;BME280;36472;52.170;20.884;2022-07-06T11:11:41;100606.09;;;26.29;37.77
21276;BME280;36472;52.170;20.884;2022-07-06T11:14:13;100616.66;;;26.30;37.62
21276;BME280;36472;52.170;20.884;2022-07-06T11:17:03;100613.66;;;25.90;36.03
21276;BME280;36472;52.170;20.884;2022-07-06T11:19:32;100607.31;;;25.48;35.81
21276;BME280;36472;52.170;20.884;2022-07-06T11:22:07;100604.25;;;25.30;37.10
21276;BME280;36472;52.170;20.884;2022-07-06T11:24:39;100601.59;;;25.36;36.99
21276;BME280;36472;52.170;20.884;2022-07-06T11:27:08;100598.34;;;25.19;36.47
21276;BME280;36472;52.170;20.884;2022-07-06T11:29:37;100603.19;;;25.09;37.43
21276;BME280;36472;52.170;20.884;2022-07-06T11:32:09;100597.97;;;24.86;36.81
21276;BME280;36472;52.170;20.884;2022-07-06T11:34:41;100604.22;;;24.57;36.67
21276;BME280;36472;52.170;20.884;2022-07-06T11:37:12;100597.72;;;24.51;37.07
21276;BME280;36472;52.170;20.884;2022-07-06T11:39:44;100592.25;;;24.59;37.00
21276;BME280;36472;52.170;20.884;2022-07-06T11:42:15;100600.56;;;24.79;36.35
21276;BME280;36472;52.170;20.884;2022-07-06T11:44:46;100599.56;;;24.51;37.26
21276;BME280;36472;52.170;20.884;2022-07-06T11:47:17;100602.19;;;24.29;36.56
21276;BME280;36472;52.170;20.884;2022-07-06T11:49:51;100592.50;;;24.05;38.00
21276;BME280;36472;52.170;20.884;2022-07-06T11:52:21;100601.13;;;24.00;41.92
21276;BME280;36472;52.170;20.884;2022-07-06T11:54:57;100595.66;;;23.94;39.00
21276;BME280;36472;52.170;20.884;2022-07-06T11:57:32;100598.09;;;24.03;38.87
21276;BME280;36472;52.170;20.884;2022-07-06T12:00:01;100599.41;;;24.22;41.23
21276;BME280;36472;52.170;20.884;2022-07-06T12:02:40;100593.00;;;24.38;37.41
21276;BME280;36472;52.170;20.884;2022-07-06T12:05:08;100586.81;;;24.38;38.87
21276;BME280;36472;52.170;20.884;2022-07-06T12:07:38;100589.13;;;24.41;36.09
21276;BME280;36472;52.170;20.884;2022-07-06T12:10:08;100595.13;;;24.58;37.36
21276;BME280;36472;52.170;20.884;2022-07-06T12:12:37;100594.84;;;24.68;37.31
21276;BME280;36472;52.170;20.884;2022-07-06T12:15:07;100601.91;;;24.69;38.41
21276;BME280;36472;52.170;20.884;2022-07-06T12:17:36;100596.06;;;24.65;38.57
21276;BME280;36472;52.170;20.884;2022-07-06T12:20:12;100593.72;;;24.77;39.36
21276;BME280;36472;52.170;20.884;2022-07-06T12:22:41;100603.44;;;24.78;39.77
21276;BME280;36472;52.170;20.884;2022-07-06T12:25:09;100594.13;;;24.95;38.86
21276;BME280;36472;52.170;20.884;2022-07-06T12:27:38;100582.31;;;25.11;35.41
21276;BME280;36472;52.170;20.884;2022-07-06T12:30:12;100588.69;;;25.10;34.86
21276;BME280;36472;52.170;20.884;2022-07-06T12:33:10;100593.25;;;25.10;36.71
21276;BME280;36472;52.170;20.884;2022-07-06T12:35:41;100590.09;;;24.85;37.26
21276;BME280;36472;52.170;20.884;2022-07-06T12:38:10;100593.19;;;24.67;35.62
21276;BME280;36472;52.170;20.884;2022-07-06T12:40:39;100585.22;;;24.43;36.92
21276;BME280;36472;52.170;20.884;2022-07-06T12:43:08;100586.31;;;24.49;37.21
21276;BME280;36472;52.170;20.884;2022-07-06T12:45:36;100592.44;;;24.43;38.10
21276;BME280;36472;52.170;20.884;2022-07-06T12:48:06;100582.88;;;24.40;37.56
21276;BME280;36472;52.170;20.884;2022-07-06T12:50:37;100590.88;;;24.63;41.24
21276;BME280;36472;52.170;20.884;2022-07-06T12:53:26;100584.78;;;24.55;35.74